createdAt,value
2019-03-26T00:00:33.791Z,81.96
2019-03-26T00:01:33.920Z,82.53
2019-03-26T00:02:34.055Z,82.15
2019-03-26T00:03:34.195Z,82.34
2019-03-26T00:04:34.313Z,82.34
2019-03-26T00:05:34.443Z,82.34
2019-03-26T00:06:34.560Z,82.15
2019-03-26T00:07:34.706Z,82.15
2019-03-26T00:08:34.826Z,82.53
2019-03-26T00:09:34.952Z,82.62
2019-03-26T00:10:35.073Z,82.34
2019-03-26T00:11:35.208Z,82.05
2019-03-26T00:12:35.328Z,82.15
2019-03-26T00:13:35.461Z,82.34
2019-03-26T00:14:35.598Z,82.34
2019-03-26T00:15:35.720Z,82.24
2019-03-26T00:16:35.862Z,82.15
2019-03-26T00:17:36.011Z,82.53
2019-03-26T00:18:36.124Z,83.00
2019-03-26T00:19:36.289Z,82.53
2019-03-26T00:20:36.377Z,83.10
2019-03-26T00:21:36.530Z,82.53
2019-03-26T00:22:36.655Z,82.91
2019-03-26T00:23:36.780Z,82.81
2019-03-26T00:24:36.903Z,82.43
2019-03-26T00:25:37.053Z,83.19
2019-03-26T00:26:37.169Z,82.71
2019-03-26T00:27:37.293Z,82.71
2019-03-26T00:28:37.442Z,82.91
2019-03-26T00:29:37.570Z,82.53
2019-03-26T00:30:37.686Z,83.00
2019-03-26T00:31:37.817Z,82.71
2019-03-26T00:32:37.949Z,82.53
2019-03-26T00:33:38.067Z,83.10
2019-03-26T00:34:38.195Z,82.24
2019-03-26T00:35:38.354Z,82.15
2019-03-26T00:36:38.471Z,82.43
2019-03-26T00:37:38.602Z,82.34
2019-03-26T00:38:38.736Z,82.24
2019-03-26T00:39:38.885Z,82.24
2019-03-26T00:40:40.279Z,82.24
2019-03-26T00:41:39.130Z,81.86
2019-03-26T00:42:39.256Z,81.67
2019-03-26T00:43:39.437Z,81.86
2019-03-26T00:44:39.531Z,81.77
2019-03-26T00:45:39.661Z,81.86
2019-03-26T00:46:39.788Z,81.10
2019-03-26T00:47:39.931Z,81.10
2019-03-26T00:48:40.057Z,81.20
2019-03-26T00:49:40.184Z,81.10
2019-03-26T00:50:40.317Z,81.67
2019-03-26T00:51:40.458Z,81.20
2019-03-26T00:52:40.581Z,81.38
2019-03-26T00:53:40.707Z,81.48
2019-03-26T00:54:40.872Z,82.05
2019-03-26T00:55:40.995Z,81.38
2019-03-26T00:56:41.114Z,81.48
2019-03-26T00:57:41.247Z,81.67
2019-03-26T00:58:41.401Z,81.67
2019-03-26T00:59:41.527Z,81.48
2019-03-26T01:00:41.687Z,81.48
2019-03-26T01:01:41.786Z,81.58
2019-03-26T01:02:41.944Z,81.67
2019-03-26T01:03:42.057Z,81.20
2019-03-26T01:04:42.184Z,81.20
2019-03-26T01:05:42.313Z,81.38
2019-03-26T01:06:42.478Z,81.20
2019-03-26T01:07:42.592Z,81.20
2019-03-26T01:08:42.716Z,81.38
2019-03-26T01:09:42.859Z,80.91
2019-03-26T01:10:42.983Z,81.01
2019-03-26T01:11:43.119Z,81.38
2019-03-26T01:12:43.234Z,81.10
2019-03-26T01:13:43.367Z,81.58
2019-03-26T01:14:43.495Z,81.58
2019-03-26T01:15:43.619Z,81.29
2019-03-26T01:16:43.751Z,81.77
2019-03-26T01:17:43.870Z,81.86
2019-03-26T01:18:43.996Z,81.77
2019-03-26T01:19:44.117Z,81.29
2019-03-26T01:20:44.244Z,81.58
2019-03-26T01:21:44.379Z,81.10
2019-03-26T01:22:44.515Z,81.86
2019-03-26T01:23:44.635Z,81.86
2019-03-26T01:24:44.760Z,81.77
2019-03-26T01:25:44.880Z,81.77
2019-03-26T01:26:45.005Z,81.77
2019-03-26T01:27:45.136Z,81.67
2019-03-26T01:28:45.263Z,82.15
2019-03-26T01:29:45.397Z,81.96
2019-03-26T01:30:45.517Z,82.15
2019-03-26T01:31:45.658Z,82.24
2019-03-26T01:32:45.772Z,81.96
2019-03-26T01:33:45.904Z,81.67
2019-03-26T01:34:46.491Z,81.86
2019-03-26T01:35:46.174Z,81.38
2019-03-26T01:36:46.293Z,81.67
2019-03-26T01:37:46.421Z,81.67
2019-03-26T01:38:46.553Z,81.67
2019-03-26T01:39:46.678Z,81.77
2019-03-26T01:40:46.807Z,81.20
2019-03-26T01:41:46.939Z,81.86
2019-03-26T01:42:47.067Z,81.48
2019-03-26T01:43:47.208Z,82.24
2019-03-26T01:44:47.325Z,82.24
2019-03-26T01:45:47.461Z,82.05
2019-03-26T01:46:47.578Z,81.58
2019-03-26T01:47:47.706Z,81.77
2019-03-26T01:48:47.838Z,81.48
2019-03-26T01:49:47.962Z,81.20
2019-03-26T01:50:48.096Z,81.20
2019-03-26T01:51:48.239Z,82.15
2019-03-26T01:52:48.360Z,81.86
2019-03-26T01:53:48.489Z,81.20
2019-03-26T01:54:48.633Z,81.29
2019-03-26T01:55:48.793Z,81.77
2019-03-26T01:56:48.865Z,81.20
2019-03-26T01:57:49.010Z,81.58
2019-03-26T01:58:49.119Z,81.58
2019-03-26T01:59:49.254Z,81.29
2019-03-26T02:00:49.386Z,81.01
2019-03-26T02:01:49.505Z,81.01
2019-03-26T02:02:49.628Z,81.01
2019-03-26T02:03:49.839Z,81.38
2019-03-26T02:04:59.758Z,81.01
2019-03-26T02:05:50.000Z,81.01
2019-03-26T02:06:50.123Z,81.38
2019-03-26T02:07:50.251Z,81.25
2019-03-26T02:08:50.378Z,80.96
2019-03-26T02:09:50.502Z,81.16
2019-03-26T02:10:50.629Z,81.54
2019-03-26T02:11:50.768Z,81.63
2019-03-26T02:12:50.884Z,81.06
2019-03-26T02:13:51.011Z,82.10
2019-03-26T02:14:51.139Z,81.92
2019-03-26T02:15:51.259Z,82.29
2019-03-26T02:16:51.388Z,82.01
2019-03-26T02:17:51.515Z,81.54
2019-03-26T02:18:51.642Z,81.73
2019-03-26T02:19:51.854Z,81.25
2019-03-26T02:20:51.918Z,81.35
2019-03-26T02:21:52.049Z,81.63
2019-03-26T02:22:52.168Z,81.44
2019-03-26T02:23:52.297Z,81.25
2019-03-26T02:24:52.431Z,81.16
2019-03-26T02:25:52.550Z,81.25
2019-03-26T02:26:52.673Z,81.25
2019-03-26T02:27:52.796Z,81.54
2019-03-26T02:28:52.930Z,80.87
2019-03-26T02:29:53.061Z,81.16
2019-03-26T02:30:53.182Z,81.06
2019-03-26T02:31:53.307Z,81.25
2019-03-26T02:32:53.443Z,81.25
2019-03-26T02:33:53.560Z,81.63
2019-03-26T02:34:53.702Z,81.25
2019-03-26T02:35:53.830Z,81.54
2019-03-26T02:36:53.955Z,80.96
2019-03-26T02:37:54.087Z,80.96
2019-03-26T02:38:54.208Z,81.16
2019-03-26T02:39:54.334Z,80.49
2019-03-26T02:40:54.461Z,80.68
2019-03-26T02:41:54.585Z,80.77
2019-03-26T02:42:54.718Z,80.87
2019-03-26T02:43:54.841Z,80.68
2019-03-26T02:44:54.966Z,80.77
2019-03-26T02:45:55.090Z,81.06
2019-03-26T02:46:55.226Z,81.06
2019-03-26T02:47:55.358Z,80.58
2019-03-26T02:48:55.475Z,80.68
2019-03-26T02:49:55.606Z,80.49
2019-03-26T02:50:55.726Z,80.58
2019-03-26T02:51:55.855Z,80.21
2019-03-26T02:52:55.989Z,80.68
2019-03-26T02:53:56.120Z,80.68
2019-03-26T02:54:56.244Z,79.92
2019-03-26T02:55:56.365Z,79.83
2019-03-26T02:56:56.500Z,80.21
2019-03-26T02:57:56.622Z,80.40
2019-03-26T02:58:56.749Z,80.49
2019-03-26T02:59:56.878Z,80.68
2019-03-26T03:00:57.006Z,80.58
2019-03-26T03:01:57.152Z,80.87
2019-03-26T03:02:57.254Z,80.77
2019-03-26T03:03:57.388Z,81.06
2019-03-26T03:04:57.512Z,81.16
2019-03-26T03:05:57.643Z,81.06
2019-03-26T03:06:57.774Z,81.54
2019-03-26T03:07:57.893Z,81.16
2019-03-26T03:08:58.026Z,81.82
2019-03-26T03:09:58.147Z,81.54
2019-03-26T03:10:58.274Z,82.01
2019-03-26T03:11:58.403Z,82.10
2019-03-26T03:12:58.527Z,82.01
2019-03-26T03:13:58.670Z,82.39
2019-03-26T03:14:58.782Z,82.01
2019-03-26T03:15:58.901Z,82.10
2019-03-26T03:16:59.044Z,82.29
2019-03-26T03:17:59.170Z,82.29
2019-03-26T03:18:59.299Z,82.68
2019-03-26T03:19:59.430Z,82.96
2019-03-26T03:20:59.554Z,82.39
2019-03-26T03:21:59.679Z,82.10
2019-03-26T03:22:59.882Z,82.01
2019-03-26T03:23:59.933Z,82.01
2019-03-26T03:25:00.228Z,82.20
2019-03-26T03:26:00.186Z,82.10
2019-03-26T03:27:00.319Z,82.39
2019-03-26T03:28:00.449Z,81.92
2019-03-26T03:29:00.580Z,82.10
2019-03-26T03:30:00.723Z,81.92
2019-03-26T03:31:00.837Z,82.20
2019-03-26T03:32:00.962Z,82.10
2019-03-26T03:33:01.086Z,82.39
2019-03-26T03:34:01.214Z,82.20
2019-03-26T03:35:01.375Z,82.20
2019-03-26T03:36:01.470Z,82.01
2019-03-26T03:37:01.594Z,81.35
2019-03-26T03:38:01.720Z,81.16
2019-03-26T03:39:01.869Z,81.16
2019-03-26T03:40:02.062Z,81.25
2019-03-26T03:41:02.140Z,81.44
2019-03-26T03:42:02.271Z,81.82
2019-03-26T03:43:02.392Z,81.82
2019-03-26T03:44:02.529Z,81.73
2019-03-26T03:45:02.652Z,81.35
2019-03-26T03:46:02.795Z,81.63
2019-03-26T03:47:02.906Z,81.44
2019-03-26T03:48:03.040Z,81.67
2019-03-26T03:49:03.153Z,81.92
2019-03-26T03:50:03.276Z,81.58
2019-03-26T03:51:03.471Z,81.06
2019-03-26T03:52:03.564Z,81.25
2019-03-26T03:53:03.677Z,80.49
2019-03-26T03:54:03.799Z,80.72
2019-03-26T03:55:03.925Z,80.21
2019-03-26T03:56:04.081Z,80.68
2019-03-26T03:57:04.204Z,80.53
2019-03-26T03:58:04.339Z,80.53
2019-03-26T03:59:04.458Z,80.49
2019-03-26T04:00:04.614Z,80.82
2019-03-26T04:01:04.725Z,80.63
2019-03-26T04:02:04.917Z,81.01
2019-03-26T04:03:05.011Z,80.91
2019-03-26T04:04:05.125Z,80.77
2019-03-26T04:05:05.259Z,80.91
2019-03-26T04:06:09.539Z,80.44
2019-03-26T04:07:05.532Z,80.53
2019-03-26T04:08:05.674Z,80.53
2019-03-26T04:09:05.803Z,80.53
2019-03-26T04:10:05.925Z,80.24
2019-03-26T04:11:06.068Z,80.15
2019-03-26T04:12:06.177Z,80.24
2019-03-26T04:13:06.307Z,80.15
2019-03-26T04:14:06.435Z,80.24
2019-03-26T04:15:06.589Z,80.15
2019-03-26T04:16:06.710Z,79.86
2019-03-26T04:17:06.833Z,79.77
2019-03-26T04:18:06.980Z,79.49
2019-03-26T04:19:07.093Z,79.39
2019-03-26T04:20:07.226Z,79.68
2019-03-26T04:21:07.354Z,79.68
2019-03-26T04:22:07.500Z,79.58
2019-03-26T04:23:07.625Z,79.68
2019-03-26T04:24:07.761Z,79.77
2019-03-26T04:25:07.883Z,79.30
2019-03-26T04:26:08.029Z,79.68
2019-03-26T04:27:08.155Z,79.54
2019-03-26T04:28:08.313Z,79.35
2019-03-26T04:29:08.452Z,79.35
2019-03-26T04:30:08.573Z,79.92
2019-03-26T04:31:08.701Z,80.11
2019-03-26T04:32:08.828Z,80.30
2019-03-26T04:33:08.980Z,80.02
2019-03-26T04:34:09.094Z,80.24
2019-03-26T04:35:09.228Z,80.21
2019-03-26T04:36:24.669Z,80.11
2019-03-26T04:37:09.491Z,80.05
2019-03-26T04:38:09.616Z,80.34
2019-03-26T04:39:09.744Z,80.34
2019-03-26T04:40:09.871Z,80.30
2019-03-26T04:41:10.024Z,80.24
2019-03-26T04:42:10.154Z,80.21
2019-03-26T04:43:10.283Z,80.21
2019-03-26T04:44:10.406Z,80.11
2019-03-26T04:45:10.534Z,79.92
2019-03-26T04:46:10.649Z,79.83
2019-03-26T04:47:10.780Z,79.83
2019-03-26T04:48:10.910Z,79.92
2019-03-26T04:49:11.073Z,79.92
2019-03-26T04:50:11.187Z,80.02
2019-03-26T04:51:11.331Z,79.92
2019-03-26T04:52:11.440Z,80.02
2019-03-26T04:53:11.576Z,79.86
2019-03-26T04:54:11.693Z,80.02
2019-03-26T04:55:11.815Z,79.63
2019-03-26T04:56:11.952Z,79.92
2019-03-26T04:57:12.095Z,79.92
2019-03-26T04:58:12.221Z,79.92
2019-03-26T04:59:12.353Z,80.15
2019-03-26T05:00:12.478Z,79.92
2019-03-26T05:01:12.605Z,80.15
2019-03-26T05:02:12.728Z,79.96
2019-03-26T05:03:12.857Z,79.77
2019-03-26T05:04:12.985Z,79.83
2019-03-26T05:05:13.115Z,79.54
2019-03-26T05:06:13.234Z,79.35
2019-03-26T05:07:13.375Z,79.73
2019-03-26T05:08:13.492Z,79.92
2019-03-26T05:09:13.670Z,80.40
2019-03-26T05:10:13.796Z,79.83
2019-03-26T05:11:13.932Z,80.11
2019-03-26T05:12:14.050Z,80.02
2019-03-26T05:13:14.186Z,80.02
2019-03-26T05:14:14.310Z,79.83
2019-03-26T05:15:14.440Z,80.21
2019-03-26T05:16:14.564Z,79.92
2019-03-26T05:17:14.723Z,80.11
2019-03-26T05:18:14.856Z,80.49
2019-03-26T05:19:14.977Z,80.58
2019-03-26T05:20:15.100Z,80.11
2019-03-26T05:21:15.249Z,80.21
2019-03-26T05:22:24.012Z,79.83
2019-03-26T05:23:15.498Z,80.02
2019-03-26T05:24:15.637Z,80.11
2019-03-26T05:25:15.761Z,80.11
2019-03-26T05:26:15.889Z,80.11
2019-03-26T05:27:16.034Z,79.83
2019-03-26T05:28:16.157Z,80.30
2019-03-26T05:29:16.299Z,80.77
2019-03-26T05:30:16.419Z,80.68
2019-03-26T05:31:16.551Z,80.87
2019-03-26T05:32:16.670Z,80.49
2019-03-26T05:33:16.824Z,80.68
2019-03-26T05:34:16.956Z,80.49
2019-03-26T05:35:17.080Z,80.87
2019-03-26T05:36:17.231Z,80.68
2019-03-26T05:37:17.368Z,80.45
2019-03-26T05:38:17.488Z,81.12
2019-03-26T05:39:17.615Z,81.49
2019-03-26T05:40:17.778Z,81.68
2019-03-26T05:41:17.902Z,81.40
2019-03-26T05:42:18.037Z,81.49
2019-03-26T05:43:18.162Z,81.68
2019-03-26T05:44:18.305Z,81.12
2019-03-26T05:45:18.430Z,81.35
2019-03-26T05:46:18.554Z,81.44
2019-03-26T05:47:18.685Z,81.06
2019-03-26T05:48:18.833Z,81.06
2019-03-26T05:49:18.963Z,80.74
2019-03-26T05:50:19.097Z,81.02
2019-03-26T05:51:19.226Z,80.64
2019-03-26T05:52:19.385Z,81.12
2019-03-26T05:53:19.498Z,81.49
2019-03-26T05:54:19.623Z,81.68
2019-03-26T05:55:19.758Z,81.21
2019-03-26T05:56:19.905Z,81.02
2019-03-26T05:57:20.031Z,81.59
2019-03-26T05:58:20.156Z,81.49
2019-03-26T05:59:20.276Z,81.44
2019-03-26T06:00:20.458Z,81.63
2019-03-26T06:01:20.551Z,81.16
2019-03-26T06:02:20.688Z,80.96
2019-03-26T06:03:20.810Z,81.25
2019-03-26T06:04:20.966Z,81.63
2019-03-26T06:05:21.079Z,80.77
2019-03-26T06:06:21.216Z,80.58
2019-03-26T06:07:21.349Z,80.49
2019-03-26T06:08:21.497Z,80.87
2019-03-26T06:09:21.624Z,80.58
2019-03-26T06:10:21.737Z,80.58
2019-03-26T06:11:21.872Z,80.49
2019-03-26T06:12:22.002Z,80.11
2019-03-26T06:13:22.122Z,79.92
2019-03-26T06:14:22.249Z,80.02
2019-03-26T06:15:22.375Z,80.02
2019-03-26T06:16:22.587Z,80.02
2019-03-26T06:17:22.583Z,79.92
2019-03-26T06:18:22.723Z,80.11
2019-03-26T06:19:22.843Z,80.21
2019-03-26T06:20:22.987Z,80.02
2019-03-26T06:21:23.110Z,79.83
2019-03-26T06:22:23.285Z,79.92
2019-03-26T06:23:23.354Z,80.40
2019-03-26T06:24:23.482Z,80.11
2019-03-26T06:25:23.611Z,80.11
2019-03-26T06:26:23.736Z,80.30
2019-03-26T06:27:23.863Z,79.86
2019-03-26T06:28:23.992Z,80.02
2019-03-26T06:29:24.130Z,79.25
2019-03-26T06:30:24.257Z,79.16
2019-03-26T06:31:24.396Z,79.35
2019-03-26T06:32:24.512Z,78.78
2019-03-26T06:33:24.650Z,78.59
2019-03-26T06:34:24.764Z,78.02
2019-03-26T06:35:24.923Z,77.73
2019-03-26T06:36:25.040Z,76.78
2019-03-26T06:37:25.168Z,76.40
2019-03-26T06:38:25.298Z,76.69
2019-03-26T06:39:25.444Z,76.97
2019-03-26T06:40:25.567Z,76.59
2019-03-26T06:41:25.737Z,76.88
2019-03-26T06:42:25.836Z,76.88
2019-03-26T06:43:25.957Z,76.03
2019-03-26T06:44:26.091Z,76.12
2019-03-26T06:45:26.222Z,76.03
2019-03-26T06:46:26.348Z,76.03
2019-03-26T06:47:26.469Z,76.03
2019-03-26T06:48:26.628Z,75.93
2019-03-26T06:49:26.741Z,75.93
2019-03-26T06:50:26.878Z,75.36
2019-03-26T06:51:27.003Z,75.84
2019-03-26T06:52:27.128Z,75.45
2019-03-26T06:53:27.258Z,75.30
2019-03-26T06:54:27.387Z,76.06
2019-03-26T06:55:27.542Z,75.21
2019-03-26T06:56:27.661Z,75.30
2019-03-26T06:57:35.407Z,75.49
2019-03-26T06:58:27.920Z,75.59
2019-03-26T06:59:28.058Z,75.55
2019-03-26T07:00:28.175Z,75.36
2019-03-26T07:01:28.304Z,75.36
2019-03-26T07:02:28.481Z,76.03
2019-03-26T07:03:28.573Z,76.50
2019-03-26T07:04:28.705Z,76.21
2019-03-26T07:05:28.827Z,76.31
2019-03-26T07:06:28.954Z,76.69
2019-03-26T07:07:31.704Z,76.59
2019-03-26T07:08:29.210Z,76.78
2019-03-26T07:09:29.328Z,76.21
2019-03-26T07:10:29.459Z,76.59
2019-03-26T07:11:29.592Z,76.31
2019-03-26T07:12:29.731Z,76.59
2019-03-26T07:13:29.859Z,75.93
2019-03-26T07:14:29.990Z,76.12
2019-03-26T07:15:30.116Z,76.21
2019-03-26T07:16:30.244Z,76.03
2019-03-26T07:17:30.370Z,76.40
2019-03-26T07:18:30.558Z,76.40
2019-03-26T07:19:30.630Z,76.21
2019-03-26T07:20:30.749Z,76.12
2019-03-26T07:21:30.884Z,75.84
2019-03-26T07:22:31.012Z,75.55
2019-03-26T07:23:31.215Z,75.26
2019-03-26T07:24:31.280Z,75.17
2019-03-26T07:25:31.407Z,74.88
2019-03-26T07:26:31.541Z,74.98
2019-03-26T07:27:31.658Z,75.17
2019-03-26T07:28:31.786Z,75.93
2019-03-26T07:29:31.910Z,75.74
2019-03-26T07:30:32.035Z,75.26
2019-03-26T07:31:32.159Z,75.64
2019-03-26T07:32:32.282Z,75.55
2019-03-26T07:33:32.410Z,74.98
2019-03-26T07:34:32.528Z,74.66
2019-03-26T07:35:32.660Z,74.66
2019-03-26T07:36:32.785Z,75.26
2019-03-26T07:37:44.647Z,75.26
2019-03-26T07:38:33.028Z,74.79
2019-03-26T07:39:33.162Z,74.69
2019-03-26T07:40:33.293Z,75.07
2019-03-26T07:41:33.421Z,74.88
2019-03-26T07:42:33.553Z,74.98
2019-03-26T07:43:33.668Z,73.55
2019-03-26T07:44:33.799Z,73.27
2019-03-26T07:45:33.927Z,72.03
2019-03-26T07:46:34.053Z,72.03
2019-03-26T07:47:34.179Z,71.56
2019-03-26T07:48:34.305Z,72.51
2019-03-26T07:49:34.435Z,72.22
2019-03-26T07:50:34.563Z,72.41
2019-03-26T07:51:34.705Z,71.66
2019-03-26T07:52:34.821Z,71.18
2019-03-26T07:53:34.954Z,71.75
2019-03-26T07:54:35.074Z,70.99
2019-03-26T07:55:35.200Z,70.54
2019-03-26T07:56:35.333Z,70.74
2019-03-26T07:57:35.460Z,70.74
2019-03-26T07:58:35.577Z,70.04
2019-03-26T07:59:35.708Z,70.23
2019-03-26T08:00:35.835Z,70.32
2019-03-26T08:01:35.964Z,70.51
2019-03-26T08:02:36.091Z,70.99
2019-03-26T08:03:36.217Z,71.08
2019-03-26T08:04:36.346Z,70.89
2019-03-26T08:05:36.476Z,71.27
2019-03-26T08:06:36.614Z,70.83
2019-03-26T08:07:36.746Z,70.54
2019-03-26T08:08:36.889Z,70.17
2019-03-26T08:09:37.149Z,70.64
2019-03-26T08:10:37.140Z,70.54
2019-03-26T08:11:37.268Z,70.64
2019-03-26T08:12:37.397Z,71.12
2019-03-26T08:13:37.568Z,70.93
2019-03-26T08:14:37.712Z,71.50
2019-03-26T08:15:37.812Z,72.83
2019-03-26T08:16:37.933Z,71.41
2019-03-26T08:17:38.095Z,72.07
2019-03-26T08:18:38.189Z,72.26
2019-03-26T08:19:38.317Z,71.97
2019-03-26T08:20:38.443Z,71.88
2019-03-26T08:21:38.571Z,71.31
2019-03-26T08:22:38.772Z,70.93
2019-03-26T08:23:38.835Z,69.98
2019-03-26T08:24:38.955Z,69.41
2019-03-26T08:25:39.084Z,69.41
2019-03-26T08:26:39.214Z,69.69
2019-03-26T08:27:39.352Z,69.41
2019-03-26T08:28:39.467Z,69.31
2019-03-26T08:29:39.595Z,69.12
2019-03-26T08:30:39.727Z,68.74
2019-03-26T08:31:39.855Z,69.50
2019-03-26T08:32:40.004Z,69.60
2019-03-26T08:33:40.129Z,69.31
2019-03-26T08:34:40.255Z,68.93
2019-03-26T08:35:40.388Z,69.69
2019-03-26T08:36:40.524Z,69.31
2019-03-26T08:37:40.630Z,68.74
2019-03-26T08:38:40.758Z,68.84
2019-03-26T08:39:40.890Z,69.02
2019-03-26T08:40:41.043Z,68.93
2019-03-26T08:41:41.173Z,68.07
2019-03-26T08:42:41.298Z,67.60
2019-03-26T08:43:41.450Z,67.60
2019-03-26T08:44:41.571Z,67.79
2019-03-26T08:45:41.701Z,68.93
2019-03-26T08:46:41.835Z,71.12
2019-03-26T08:47:41.981Z,70.64
2019-03-26T08:48:42.101Z,69.79
2019-03-26T08:49:42.227Z,69.31
2019-03-26T08:50:42.348Z,69.12
2019-03-26T08:51:42.483Z,68.65
2019-03-26T08:52:42.616Z,68.27
2019-03-26T08:53:42.741Z,68.36
2019-03-26T08:54:42.864Z,69.12
2019-03-26T08:55:43.004Z,69.02
2019-03-26T08:56:43.136Z,69.31
2019-03-26T08:57:43.258Z,69.66
2019-03-26T08:58:43.419Z,69.79
2019-03-26T08:59:43.566Z,69.46
2019-03-26T09:00:43.720Z,69.02
2019-03-26T09:01:43.795Z,69.09
2019-03-26T09:02:43.933Z,68.90
2019-03-26T09:03:44.101Z,69.27
2019-03-26T09:04:44.194Z,69.27
2019-03-26T09:05:44.320Z,69.09
2019-03-26T09:06:44.450Z,68.80
2019-03-26T09:07:44.603Z,69.18
2019-03-26T09:08:44.739Z,69.27
2019-03-26T09:09:44.851Z,69.46
2019-03-26T09:10:51.720Z,69.60
2019-03-26T09:11:45.115Z,69.60
2019-03-26T09:12:45.243Z,69.69
2019-03-26T09:13:45.370Z,69.88
2019-03-26T09:14:45.503Z,70.45
2019-03-26T09:15:45.634Z,69.98
2019-03-26T09:16:45.739Z,69.88
2019-03-26T09:17:45.872Z,70.26
2019-03-26T09:18:45.996Z,70.93
2019-03-26T09:19:46.122Z,70.07
2019-03-26T09:20:46.250Z,69.41
2019-03-26T09:21:46.375Z,69.60
2019-03-26T09:22:46.508Z,68.84
2019-03-26T09:23:46.636Z,69.50
2019-03-26T09:24:46.755Z,69.02
2019-03-26T09:25:46.886Z,68.74
2019-03-26T09:26:47.018Z,69.31
2019-03-26T09:27:47.139Z,68.93
2019-03-26T09:28:47.970Z,68.55
2019-03-26T09:29:47.388Z,68.84
2019-03-26T09:30:47.515Z,68.84
2019-03-26T09:31:47.643Z,69.21
2019-03-26T09:32:47.771Z,68.99
2019-03-26T09:33:47.901Z,69.12
2019-03-26T09:34:48.027Z,69.50
2019-03-26T09:35:48.171Z,69.69
2019-03-26T09:36:48.279Z,69.27
2019-03-26T09:37:48.407Z,69.69
2019-03-26T09:38:48.539Z,69.31
2019-03-26T09:39:48.671Z,69.85
2019-03-26T09:40:48.815Z,69.46
2019-03-26T09:41:48.952Z,69.66
2019-03-26T09:42:49.086Z,69.18
2019-03-26T09:43:49.209Z,71.18
2019-03-26T09:44:49.340Z,72.41
2019-03-26T09:45:49.463Z,72.60
2019-03-26T09:46:49.596Z,72.89
2019-03-26T09:47:49.723Z,72.89
2019-03-26T09:48:49.865Z,72.70
2019-03-26T09:49:49.982Z,72.79
2019-03-26T09:50:50.108Z,73.65
2019-03-26T09:51:50.250Z,72.79
2019-03-26T09:52:50.372Z,72.99
2019-03-26T09:53:50.512Z,73.84
2019-03-26T09:54:50.626Z,73.65
2019-03-26T09:55:50.755Z,73.08
2019-03-26T09:56:50.885Z,72.32
2019-03-26T09:57:51.015Z,72.32
2019-03-26T09:58:51.144Z,72.55
2019-03-26T09:59:51.270Z,72.45
2019-03-26T10:00:51.571Z,71.18
2019-03-26T10:01:51.530Z,70.79
2019-03-26T10:02:51.652Z,69.66
2019-03-26T10:03:51.780Z,69.94
2019-03-26T10:04:51.903Z,70.54
2019-03-26T10:05:52.028Z,69.79
2019-03-26T10:06:52.157Z,69.75
2019-03-26T10:07:52.311Z,68.55
2019-03-26T10:08:53.034Z,68.80
2019-03-26T10:09:52.572Z,68.74
2019-03-26T10:10:52.730Z,67.76
2019-03-26T10:11:52.842Z,66.80
2019-03-26T10:12:52.974Z,66.33
2019-03-26T10:13:53.125Z,66.42
2019-03-26T10:14:53.262Z,66.61
2019-03-26T10:15:53.378Z,67.79
2019-03-26T10:16:53.507Z,68.93
2019-03-26T10:17:53.650Z,69.31
2019-03-26T10:18:53.770Z,69.31
2019-03-26T10:19:53.898Z,69.15
2019-03-26T10:20:54.029Z,67.73
2019-03-26T10:21:54.273Z,67.92
2019-03-26T10:22:54.291Z,68.11
2019-03-26T10:23:54.444Z,68.87
2019-03-26T10:24:54.549Z,67.10
2019-03-26T10:25:54.686Z,65.67
2019-03-26T10:26:54.803Z,66.53
2019-03-26T10:27:54.934Z,64.34
2019-03-26T10:28:55.066Z,63.45
2019-03-26T10:29:55.190Z,64.62
2019-03-26T10:30:55.330Z,65.58
2019-03-26T10:31:55.469Z,65.77
2019-03-26T10:32:55.600Z,66.33
2019-03-26T10:33:55.732Z,65.77
2019-03-26T10:34:55.858Z,65.00
2019-03-26T10:35:56.013Z,64.37
2019-03-26T10:36:56.131Z,65.23
2019-03-26T10:37:56.272Z,65.32
2019-03-26T10:39:05.508Z,65.32
2019-03-26T10:39:56.567Z,64.47
2019-03-26T10:40:56.747Z,64.65
2019-03-26T10:41:56.869Z,65.51
2019-03-26T10:42:57.001Z,65.03
2019-03-26T10:43:57.130Z,64.84
2019-03-26T10:44:57.262Z,64.08
2019-03-26T10:45:57.392Z,63.13
2019-03-26T10:46:57.520Z,64.24
2019-03-26T10:47:57.658Z,65.80
2019-03-26T10:48:57.789Z,65.70
2019-03-26T10:49:57.910Z,65.42
2019-03-26T10:50:58.042Z,64.37
2019-03-26T10:51:58.166Z,63.60
2019-03-26T10:52:58.313Z,64.08
2019-03-26T10:53:58.433Z,64.37
2019-03-26T10:54:58.576Z,64.43
2019-03-26T10:55:58.700Z,64.24
2019-03-26T10:56:58.830Z,64.43
2019-03-26T10:57:58.964Z,64.34
2019-03-26T10:58:59.096Z,64.24
2019-03-26T10:59:59.238Z,64.81
2019-03-26T11:00:59.363Z,64.34
2019-03-26T11:01:59.988Z,64.34
2019-03-26T11:02:59.620Z,65.54
2019-03-26T11:03:59.760Z,66.30
2019-03-26T11:04:59.895Z,67.54
2019-03-26T11:06:00.024Z,67.16
2019-03-26T11:07:00.161Z,66.87
2019-03-26T11:08:00.300Z,66.91
2019-03-26T11:09:00.423Z,66.43
2019-03-26T11:10:00.581Z,66.87
2019-03-26T11:11:00.680Z,66.30
2019-03-26T11:12:00.812Z,66.97
2019-03-26T11:13:00.942Z,66.68
2019-03-26T11:14:01.074Z,65.73
2019-03-26T11:15:01.204Z,65.54
2019-03-26T11:16:01.327Z,66.11
2019-03-26T11:17:01.457Z,66.78
2019-03-26T11:18:01.590Z,66.78
2019-03-26T11:19:01.714Z,67.44
2019-03-26T11:20:01.855Z,67.63
2019-03-26T11:21:03.220Z,68.21
2019-03-26T11:22:02.108Z,67.54
2019-03-26T11:23:02.242Z,68.21
2019-03-26T11:24:02.370Z,67.54
2019-03-26T11:25:02.500Z,66.30
2019-03-26T11:26:02.630Z,66.39
2019-03-26T11:27:02.751Z,66.33
2019-03-26T11:28:02.877Z,65.70
2019-03-26T11:29:03.007Z,64.59
2019-03-26T11:30:03.125Z,62.15
2019-03-26T11:31:03.267Z,60.08
2019-03-26T11:32:03.387Z,59.06
2019-03-26T11:33:03.517Z,59.06
2019-03-26T11:34:03.660Z,58.23
2019-03-26T11:35:03.799Z,55.15
2019-03-26T11:36:03.923Z,55.43
2019-03-26T11:37:04.055Z,55.91
2019-03-26T11:38:04.189Z,56.93
2019-03-26T11:39:04.320Z,57.79
2019-03-26T11:40:04.456Z,58.14
2019-03-26T11:41:04.654Z,58.52
2019-03-26T11:42:04.731Z,59.00
2019-03-26T11:43:04.855Z,57.86
2019-03-26T11:44:05.174Z,57.76
2019-03-26T11:45:05.123Z,56.87
2019-03-26T11:46:05.245Z,57.07
2019-03-26T11:47:05.375Z,57.82
2019-03-26T11:48:05.505Z,58.21
2019-03-26T11:49:05.625Z,58.59
2019-03-26T11:50:05.776Z,58.11
2019-03-26T11:51:05.915Z,58.97
2019-03-26T11:52:06.052Z,61.07
2019-03-26T11:53:06.179Z,60.02
2019-03-26T11:54:06.307Z,60.27
2019-03-26T11:55:06.443Z,59.54
2019-03-26T11:56:06.585Z,58.59
2019-03-26T11:57:06.710Z,59.99
2019-03-26T11:58:06.846Z,59.89
2019-03-26T11:59:06.970Z,59.26
2019-03-26T12:00:07.106Z,58.37
2019-03-26T12:01:07.242Z,57.80
2019-03-26T12:02:07.373Z,58.65
2019-03-26T12:03:07.504Z,59.03
2019-03-26T12:04:07.670Z,59.89
2019-03-26T12:05:07.767Z,59.70
2019-03-26T12:06:07.907Z,59.23
2019-03-26T12:07:08.029Z,59.03
2019-03-26T12:08:08.166Z,59.23
2019-03-26T12:09:08.291Z,61.04
2019-03-26T12:10:08.436Z,59.99
2019-03-26T12:11:08.553Z,59.51
2019-03-26T12:12:08.687Z,59.32
2019-03-26T12:13:08.811Z,58.56
2019-03-26T12:14:08.935Z,58.59
2019-03-26T12:15:09.076Z,58.21
2019-03-26T12:16:09.197Z,58.59
2019-03-26T12:17:09.337Z,57.54
2019-03-26T12:18:09.457Z,57.09
2019-03-26T12:19:09.591Z,57.00
2019-03-26T12:20:09.723Z,57.09
2019-03-26T12:21:09.861Z,58.14
2019-03-26T12:22:09.983Z,58.24
2019-03-26T12:23:10.133Z,58.72
2019-03-26T12:24:10.244Z,58.62
2019-03-26T12:25:10.382Z,57.07
2019-03-26T12:26:10.508Z,56.21
2019-03-26T12:27:10.637Z,55.92
2019-03-26T12:28:10.777Z,55.92
2019-03-26T12:29:10.898Z,56.02
2019-03-26T12:30:11.026Z,56.78
2019-03-26T12:31:11.162Z,56.30
2019-03-26T12:32:11.296Z,57.13
2019-03-26T12:33:11.417Z,56.75
2019-03-26T12:34:11.550Z,56.37
2019-03-26T12:35:11.691Z,56.94
2019-03-26T12:36:11.815Z,57.99
2019-03-26T12:37:11.963Z,58.08
2019-03-26T12:38:12.084Z,57.89
2019-03-26T12:39:12.213Z,58.08
2019-03-26T12:40:12.340Z,58.47
2019-03-26T12:41:12.473Z,58.47
2019-03-26T12:42:12.613Z,58.56
2019-03-26T12:43:12.742Z,59.23
2019-03-26T12:44:12.871Z,59.03
2019-03-26T12:45:13.008Z,58.65
2019-03-26T12:46:13.126Z,58.84
2019-03-26T12:47:13.267Z,58.47
2019-03-26T12:48:13.402Z,58.94
2019-03-26T12:49:13.532Z,59.23
2019-03-26T12:50:13.661Z,59.23
2019-03-26T12:51:13.798Z,59.42
2019-03-26T12:52:13.937Z,59.23
2019-03-26T12:53:14.055Z,58.56
2019-03-26T12:54:14.180Z,58.56